Time;durP1;ratioP1;P1;durP2;ratioP2;P2;SDS_P1;SDS_P2;PMS_P1;PMS_P2;Temp;Humidity;BMP_temperature;BMP_pressure;BME280_temperature;BME280_humidity;BME280_pressure;Samples;Min_cycle;Max_cycle;Signal;HPM_P1;HPM_P2
2021/05/27 00:00:29;;;;;;;4.47;1.83;;;;;;;;;;5153154;27;20097;-60
2021/05/27 00:02:56;;;;;;;4.97;1.60;;;;;;;;;;5134522;27;20110;-61
2021/05/27 00:05:22;;;;;;;6.22;1.30;;;;;;;;;;5153201;27;20054;-61
2021/05/27 00:07:49;;;;;;;5.25;1.42;;;;;;;;;;5152955;27;20027;-60
2021/05/27 00:10:17;;;;;;;5.45;1.38;;;;;;;;;;5153110;27;20061;-61
2021/05/27 00:12:43;;;;;;;4.63;1.48;;;;;;;;;;5152900;27;20077;-60
2021/05/27 00:15:10;;;;;;;6.93;1.73;;;;;;;;;;5134124;27;20071;-61
2021/05/27 00:17:36;;;;;;;3.15;1.38;;;;;;;;;;5152771;27;20470;-60
2021/05/27 00:20:04;;;;;;;4.72;1.80;;;;;;;;;;5152698;27;20030;-60
2021/05/27 00:22:30;;;;;;;3.38;1.27;;;;;;;;;;5152944;27;20015;-60
2021/05/27 00:24:56;;;;;;;4.80;1.48;;;;;;;;;;5134465;27;20038;-61
2021/05/27 00:27:22;;;;;;;4.10;1.13;;;;;;;;;;5152958;27;20058;-61
2021/05/27 00:29:48;;;;;;;4.20;1.48;;;;;;;;;;5152385;27;20106;-60
2021/05/27 00:32:14;;;;;;;5.28;1.20;;;;;;;;;;5152707;27;20054;-61
2021/05/27 00:34:40;;;;;;;3.47;1.33;;;;;;;;;;5152266;27;20054;-60
2021/05/27 00:37:07;;;;;;;3.67;1.25;;;;;;;;;;5152804;27;20023;-60
2021/05/27 00:39:33;;;;;;;4.93;1.50;;;;;;;;;;5134168;27;20058;-61
2021/05/27 00:41:59;;;;;;;4.68;1.30;;;;;;;;;;5152337;27;20027;-60
2021/05/27 00:44:26;;;;;;;4.90;1.45;;;;;;;;;;5152585;27;20477;-61
2021/05/27 00:46:52;;;;;;;6.82;1.55;;;;;;;;;;5152704;27;20030;-60
2021/05/27 00:49:19;;;;;;;5.15;1.52;;;;;;;;;;5152771;27;20027;-60
2021/05/27 00:51:45;;;;;;;4.13;1.27;;;;;;;;;;5152383;27;20026;-60
2021/05/27 00:54:12;;;;;;;4.25;1.40;;;;;;;;;;5152409;27;20136;-60
2021/05/27 00:56:39;;;;;;;6.03;1.45;;;;;;;;;;5152556;27;20030;-60
2021/05/27 00:59:05;;;;;;;8.27;2.22;;;;;;;;;;5152535;27;20018;-61
2021/05/27 01:01:31;;;;;;;4.63;1.50;;;;;;;;;;5152545;27;20023;-60
2021/05/27 01:03:57;;;;;;;5.22;1.60;;;;;;;;;;5152094;27;20033;-61
2021/05/27 01:06:23;;;;;;;4.78;1.70;;;;;;;;;;5152339;27;20015;-60
2021/05/27 01:08:49;;;;;;;4.85;1.45;;;;;;;;;;5139735;27;20122;-61
2021/05/27 01:11:16;;;;;;;2.97;1.30;;;;;;;;;;5131728;28;20019;-61
2021/05/27 01:13:43;;;;;;;6.32;1.65;;;;;;;;;;5131503;28;20027;-60
2021/05/27 01:16:13;;;;;;;6.53;1.80;;;;;;;;;;5131621;28;20154;-60
2021/05/27 01:18:39;;;;;;;4.82;1.80;;;;;;;;;;5131649;28;20026;-61
2021/05/27 01:21:05;;;;;;;5.85;1.67;;;;;;;;;;5131648;28;20100;-60
2021/05/27 01:23:31;;;;;;;3.85;1.50;;;;;;;;;;5131563;28;20538;-60
2021/05/27 01:25:58;;;;;;;8.90;2.05;;;;;;;;;;5131537;28;20035;-60
2021/05/27 01:28:28;;;;;;;5.63;1.55;;;;;;;;;;5131551;28;20015;-61
2021/05/27 01:30:54;;;;;;;5.03;1.73;;;;;;;;;;5131652;28;20019;-61
2021/05/27 01:33:20;;;;;;;7.43;1.75;;;;;;;;;;5131287;28;20134;-60
2021/05/27 01:35:46;;;;;;;3.95;1.48;;;;;;;;;;5131329;28;20131;-60
2021/05/27 01:38:14;;;;;;;4.93;1.70;;;;;;;;;;5131568;28;20020;-61
2021/05/27 01:40:40;;;;;;;5.85;1.45;;;;;;;;;;5131513;27;20033;-60
2021/05/27 01:43:06;;;;;;;5.82;1.52;;;;;;;;;;5145489;27;20037;-60
2021/05/27 01:45:32;;;;;;;9.35;1.70;;;;;;;;;;5156232;27;20026;-61
2021/05/27 01:47:58;;;;;;;4.78;1.42;;;;;;;;;;5155781;27;20059;-60
2021/05/27 01:50:24;;;;;;;6.10;1.73;;;;;;;;;;5155832;27;20057;-60
2021/05/27 01:52:51;;;;;;;6.90;1.45;;;;;;;;;;5155664;27;20532;-61
2021/05/27 01:55:17;;;;;;;7.57;2.17;;;;;;;;;;5137013;27;20026;-61
2021/05/27 01:57:43;;;;;;;5.78;1.50;;;;;;;;;;5155564;27;20022;-61
2021/05/27 02:00:10;;;;;;;4.38;1.38;;;;;;;;;;5155711;27;20366;-60
2021/05/27 02:02:36;;;;;;;5.50;1.50;;;;;;;;;;5155488;27;20545;-60
2021/05/27 02:05:02;;;;;;;7.25;1.80;;;;;;;;;;5155576;27;20049;-60
2021/05/27 02:07:28;;;;;;;5.20;1.58;;;;;;;;;;5155494;27;20026;-60
2021/05/27 02:09:54;;;;;;;5.07;1.60;;;;;;;;;;5155477;27;20030;-60
2021/05/27 02:12:21;;;;;;;5.43;1.70;;;;;;;;;;5155466;27;20033;-60
2021/05/27 02:14:47;;;;;;;5.63;1.58;;;;;;;;;;5136368;27;20037;-60
2021/05/27 02:17:13;;;;;;;6.68;2.17;;;;;;;;;;5155079;27;20548;-60
2021/05/27 02:19:39;;;;;;;5.68;1.83;;;;;;;;;;5155089;27;20053;-60
2021/05/27 02:22:05;;;;;;;4.22;1.50;;;;;;;;;;5155019;27;20097;-61
2021/05/27 02:24:31;;;;;;;4.68;1.60;;;;;;;;;;5154733;27;20045;-60
2021/05/27 02:26:57;;;;;;;5.20;1.63;;;;;;;;;;5154584;27;20026;-60
2021/05/27 02:29:23;;;;;;;5.32;1.52;;;;;;;;;;5154458;27;20023;-60
2021/05/27 02:31:49;;;;;;;5.93;1.67;;;;;;;;;;5135664;27;20114;-60
2021/05/27 02:34:15;;;;;;;3.45;1.20;;;;;;;;;;5153703;27;20133;-60
2021/05/27 02:36:41;;;;;;;5.15;1.50;;;;;;;;;;5153860;27;20011;-60
2021/05/27 02:39:08;;;;;;;5.90;1.88;;;;;;;;;;5153984;27;20019;-60
2021/05/27 02:41:34;;;;;;;5.55;1.70;;;;;;;;;;5154165;27;20023;-60
2021/05/27 02:44:00;;;;;;;5.28;1.50;;;;;;;;;;5135227;27;20030;-60
2021/05/27 02:46:26;;;;;;;5.50;1.95;;;;;;;;;;5133305;27;20034;-60
2021/05/27 02:48:52;;;;;;;6.57;2.08;;;;;;;;;;5133154;27;20417;-61
2021/05/27 02:51:19;;;;;;;3.95;1.50;;;;;;;;;;5133218;27;20019;-60
2021/05/27 02:53:45;;;;;;;5.50;1.48;;;;;;;;;;5114711;27;20027;-60
2021/05/27 02:56:11;;;;;;;7.07;1.55;;;;;;;;;;5133764;27;20053;-60
2021/05/27 02:58:37;;;;;;;4.10;1.38;;;;;;;;;;5133870;27;20352;-60
2021/05/27 03:01:03;;;;;;;4.85;1.40;;;;;;;;;;5133886;27;20080;-60
2021/05/27 03:03:29;;;;;;;4.75;1.50;;;;;;;;;;5133904;27;20023;-60
2021/05/27 03:05:55;;;;;;;4.10;1.48;;;;;;;;;;5133255;27;20096;-61
2021/05/27 03:08:21;;;;;;;6.18;1.73;;;;;;;;;;5115162;27;20015;-60
2021/05/27 03:10:47;;;;;;;3.85;1.70;;;;;;;;;;5133426;27;20059;-60
2021/05/27 03:13:14;;;;;;;4.07;1.67;;;;;;;;;;5133202;27;20064;-60
2021/05/27 03:15:40;;;;;;;3.65;1.67;;;;;;;;;;5133185;27;20091;-60
2021/05/27 03:18:06;;;;;;;3.90;1.02;;;;;;;;;;5133270;27;20019;-60
2021/05/27 03:20:33;;;;;;;4.28;1.50;;;;;;;;;;5133327;27;20059;-60
2021/05/27 03:23:00;;;;;;;5.32;1.67;;;;;;;;;;5133279;27;20106;-60
2021/05/27 03:25:26;;;;;;;5.38;1.67;;;;;;;;;;5133161;27;20026;-60
2021/05/27 03:27:53;;;;;;;3.05;1.20;;;;;;;;;;5133016;27;20073;-60
2021/05/27 03:30:19;;;;;;;7.85;1.85;;;;;;;;;;5133028;27;20064;-60
2021/05/27 03:32:45;;;;;;;4.13;1.40;;;;;;;;;;5132972;27;20023;-60
2021/05/27 03:35:12;;;;;;;6.47;2.00;;;;;;;;;;5132758;27;20121;-60
2021/05/27 03:37:38;;;;;;;6.63;1.48;;;;;;;;;;5132843;27;20073;-60
2021/05/27 03:42:41;;;;;;;4.90;1.25;;;;;;;;;;5139581;27;20358;-60
2021/05/27 03:45:08;;;;;;;5.38;1.95;;;;;;;;;;5153230;27;20043;-60
2021/05/27 03:47:34;;;;;;;5.88;1.52;;;;;;;;;;5153213;27;20425;-60
2021/05/27 03:50:00;;;;;;;3.40;1.40;;;;;;;;;;5152930;27;20027;-60
2021/05/27 03:52:27;;;;;;;3.22;1.20;;;;;;;;;;5153217;27;20054;-60
2021/05/27 03:54:53;;;;;;;5.18;1.60;;;;;;;;;;5133814;27;20034;-60
2021/05/27 03:57:19;;;;;;;5.10;1.55;;;;;;;;;;5153151;27;20041;-60
2021/05/27 04:02:29;;;;;;;6.50;1.60;;;;;;;;;;5153155;27;20094;-60
2021/05/27 04:07:40;;;;;;;3.78;1.17;;;;;;;;;;5153122;27;20046;-61
2021/05/27 04:10:09;;;;;;;4.38;1.50;;;;;;;;;;5152897;27;20022;-60
2021/05/27 04:12:47;;;;;;;4.70;1.38;;;;;;;;;;5153010;27;20019;-60
2021/05/27 04:17:47;;;;;;;6.45;1.52;;;;;;;;;;5135568;27;20023;-60
2021/05/27 04:20:13;;;;;;;9.20;1.70;;;;;;;;;;5152592;27;20018;-60
2021/05/27 04:22:40;;;;;;;3.75;1.30;;;;;;;;;;5152602;27;20018;-60
2021/05/27 04:25:07;;;;;;;4.35;1.23;;;;;;;;;;5133949;27;20023;-61
2021/05/27 04:27:33;;;;;;;6.03;1.38;;;;;;;;;;5152915;27;20022;-60
2021/05/27 04:30:12;;;;;;;5.22;1.30;;;;;;;;;;5152473;27;20023;-60
2021/05/27 04:35:20;;;;;;;4.28;1.88;;;;;;;;;;5152527;27;20441;-60
2021/05/27 04:37:47;;;;;;;3.53;1.35;;;;;;;;;;5152693;27;20071;-61
2021/05/27 04:40:13;;;;;;;3.53;1.30;;;;;;;;;;5152367;27;20027;-60
2021/05/27 04:42:39;;;;;;;7.25;1.58;;;;;;;;;;5133839;27;20014;-61
2021/05/27 04:45:05;;;;;;;2.90;1.20;;;;;;;;;;5152731;27;20147;-60
2021/05/27 04:47:31;;;;;;;5.38;1.48;;;;;;;;;;5152864;27;20066;-60
2021/05/27 04:49:58;;;;;;;4.68;1.50;;;;;;;;;;5152550;27;20090;-60
2021/05/27 04:52:24;;;;;;;4.07;1.40;;;;;;;;;;5152584;27;20029;-60
2021/05/27 04:54:50;;;;;;;4.47;1.40;;;;;;;;;;5152475;27;20030;-60
2021/05/27 04:57:16;;;;;;;4.07;1.45;;;;;;;;;;5152681;27;20019;-60
2021/05/27 04:59:42;;;;;;;4.30;1.40;;;;;;;;;;5152537;27;20030;-60
2021/05/27 05:02:08;;;;;;;6.53;1.77;;;;;;;;;;5152269;27;20441;-61
2021/05/27 05:04:35;;;;;;;3.33;1.33;;;;;;;;;;5152591;27;20027;-60
2021/05/27 05:07:01;;;;;;;4.57;1.55;;;;;;;;;;5152561;27;20019;-60
2021/05/27 05:09:28;;;;;;;3.00;1.20;;;;;;;;;;5152493;27;20027;-60
2021/05/27 05:11:54;;;;;;;4.35;1.90;;;;;;;;;;5152179;27;20046;-61
2021/05/27 05:14:20;;;;;;;4.10;1.50;;;;;;;;;;5152396;27;20026;-60
2021/05/27 05:16:46;;;;;;;6.75;1.75;;;;;;;;;;5154233;27;20023;-60
2021/05/27 05:19:12;;;;;;;4.30;1.77;;;;;;;;;;5156434;27;20011;-60
2021/05/27 05:21:38;;;;;;;4.72;2.08;;;;;;;;;;5156531;27;20033;-60
2021/05/27 05:24:05;;;;;;;4.90;1.45;;;;;;;;;;5156359;27;20056;-60
2021/05/27 05:26:31;;;;;;;3.83;1.73;;;;;;;;;;5156614;27;20022;-60
2021/05/27 05:28:57;;;;;;;4.28;1.58;;;;;;;;;;5156531;27;20064;-60
2021/05/27 05:31:23;;;;;;;3.17;1.35;;;;;;;;;;5156309;27;20019;-60
2021/05/27 05:33:54;;;;;;;4.35;1.58;;;;;;;;;;5155993;27;20503;-60
2021/05/27 05:36:20;;;;;;;5.07;1.40;;;;;;;;;;5156246;27;20024;-60
2021/05/27 05:38:46;;;;;;;3.90;1.40;;;;;;;;;;5156289;27;20182;-60
2021/05/27 05:41:12;;;;;;;4.15;1.70;;;;;;;;;;5156218;27;20064;-60
2021/05/27 05:43:38;;;;;;;5.55;1.70;;;;;;;;;;5140950;27;20110;-60
2021/05/27 05:46:05;;;;;;;4.97;1.40;;;;;;;;;;5135371;27;20026;-60
2021/05/27 05:48:32;;;;;;;4.43;1.20;;;;;;;;;;5135136;27;20537;-59
2021/05/27 05:51:00;;;;;;;4.38;1.38;;;;;;;;;;5135269;27;20435;-60
2021/05/27 05:53:26;;;;;;;3.45;1.48;;;;;;;;;;5135207;27;20023;-60
2021/05/27 05:55:53;;;;;;;4.32;1.50;;;;;;;;;;5134612;27;20041;-60
2021/05/27 05:58:20;;;;;;;4.40;1.65;;;;;;;;;;5134752;27;20138;-60
2021/05/27 06:00:46;;;;;;;5.07;1.88;;;;;;;;;;5137752;27;20047;-61
2021/05/27 06:03:13;;;;;;;4.88;1.90;;;;;;;;;;5145475;27;20474;-60
2021/05/27 06:05:39;;;;;;;12.73;1.90;;;;;;;;;;5145002;27;20023;-60
2021/05/27 06:08:05;;;;;;;3.60;1.52;;;;;;;;;;5149907;27;20054;-60
2021/05/27 06:10:31;;;;;;;4.22;1.50;;;;;;;;;;5146028;27;20026;-60
2021/05/27 06:12:58;;;;;;;6.45;1.77;;;;;;;;;;5150081;27;20556;-60
2021/05/27 06:15:25;;;;;;;4.20;1.60;;;;;;;;;;5145947;27;20027;-60
2021/05/27 06:17:51;;;;;;;5.45;1.73;;;;;;;;;;5139007;27;20412;-59
2021/05/27 06:20:20;;;;;;;3.97;1.50;;;;;;;;;;5139841;27;20019;-60
2021/05/27 06:22:46;;;;;;;4.80;1.90;;;;;;;;;;5152660;27;20054;-60
2021/05/27 06:25:12;;;;;;;5.95;2.13;;;;;;;;;;5155211;27;20023;-60
2021/05/27 06:27:38;;;;;;;7.65;2.70;;;;;;;;;;5154666;27;20048;-59
2021/05/27 06:30:05;;;;;;;7.05;2.75;;;;;;;;;;5154936;27;20033;-60
2021/05/27 06:32:34;;;;;;;9.30;2.70;;;;;;;;;;5144929;27;20106;-60
2021/05/27 06:35:00;;;;;;;6.88;3.35;;;;;;;;;;5143735;27;20481;-59
2021/05/27 06:37:26;;;;;;;6.43;2.78;;;;;;;;;;5144362;27;20026;-59
2021/05/27 06:39:52;;;;;;;7.00;2.97;;;;;;;;;;5142581;27;20050;-59
2021/05/27 06:42:19;;;;;;;7.43;2.80;;;;;;;;;;5144346;27;20014;-59
2021/05/27 06:44:45;;;;;;;8.18;2.80;;;;;;;;;;5143992;27;20026;-60
2021/05/27 06:47:11;;;;;;;5.97;2.80;;;;;;;;;;5146210;27;20091;-60
2021/05/27 06:49:37;;;;;;;8.15;2.85;;;;;;;;;;5142899;27;20046;-60
2021/05/27 06:52:04;;;;;;;7.75;2.30;;;;;;;;;;5144906;27;20382;-60
2021/05/27 06:54:30;;;;;;;6.15;2.30;;;;;;;;;;5144165;27;20054;-60
2021/05/27 06:56:57;;;;;;;4.80;2.45;;;;;;;;;;5143906;27;20015;-59
2021/05/27 06:59:23;;;;;;;9.10;2.55;;;;;;;;;;5144981;27;20095;-59
2021/05/27 07:01:49;;;;;;;8.25;2.47;;;;;;;;;;5133606;27;20020;-59
2021/05/27 07:04:16;;;;;;;5.72;2.25;;;;;;;;;;5133802;27;20023;-60
2021/05/27 07:06:42;;;;;;;7.90;2.50;;;;;;;;;;5133783;27;20026;-59
2021/05/27 07:09:08;;;;;;;10.38;2.38;;;;;;;;;;5133634;27;20099;-59
2021/05/27 07:11:34;;;;;;;6.63;2.22;;;;;;;;;;5133505;27;20019;-60
2021/05/27 07:14:00;;;;;;;6.88;2.35;;;;;;;;;;5133370;27;20086;-58
2021/05/27 07:16:29;;;;;;;4.30;1.85;;;;;;;;;;5133724;27;20031;-58
2021/05/27 07:18:55;;;;;;;5.68;1.58;;;;;;;;;;5114781;27;20019;-59
2021/05/27 07:21:21;;;;;;;5.88;2.47;;;;;;;;;;5133422;27;20406;-58
2021/05/27 07:23:48;;;;;;;6.10;2.05;;;;;;;;;;5133368;27;20016;-58
2021/05/27 07:26:14;;;;;;;5.75;2.33;;;;;;;;;;5133226;27;20026;-59
2021/05/27 07:28:40;;;;;;;5.68;1.67;;;;;;;;;;5133359;27;20027;-58
2021/05/27 07:31:07;;;;;;;6.60;2.15;;;;;;;;;;5133249;27;20118;-60
2021/05/27 07:33:33;;;;;;;7.53;2.35;;;;;;;;;;5114955;27;20045;-61
2021/05/27 07:35:59;;;;;;;5.85;2.13;;;;;;;;;;5133203;27;20031;-61
2021/05/27 07:38:25;;;;;;;7.20;1.90;;;;;;;;;;5132828;27;20019;-59
2021/05/27 07:40:51;;;;;;;12.55;2.67;;;;;;;;;;5133275;27;20034;-59
2021/05/27 07:43:17;;;;;;;7.20;1.95;;;;;;;;;;5133686;27;20099;-59
2021/05/27 07:45:43;;;;;;;5.65;1.95;;;;;;;;;;5133024;27;20047;-59
2021/05/27 07:48:09;;;;;;;4.63;2.00;;;;;;;;;;5144559;27;20029;-60
2021/05/27 07:50:36;;;;;;;3.53;1.60;;;;;;;;;;5120084;27;20455;-60
2021/05/27 07:53:02;;;;;;;7.65;1.85;;;;;;;;;;5138884;27;20023;-59
2021/05/27 07:55:28;;;;;;;4.70;1.75;;;;;;;;;;5147989;27;20038;-58
2021/05/27 07:57:54;;;;;;;7.60;1.80;;;;;;;;;;5144644;27;20057;-59
2021/05/27 08:00:21;;;;;;;6.25;1.90;;;;;;;;;;5153626;27;20022;-60
2021/05/27 08:02:47;;;;;;;3.40;1.60;;;;;;;;;;5134585;27;20470;-60
2021/05/27 08:05:14;;;;;;;5.95;1.80;;;;;;;;;;5153643;27;20621;-59
2021/05/27 08:07:40;;;;;;;6.70;2.50;;;;;;;;;;5135052;27;20019;-59
2021/05/27 08:10:06;;;;;;;5.05;1.52;;;;;;;;;;5153283;27;20491;-60
2021/05/27 08:12:32;;;;;;;7.03;2.10;;;;;;;;;;5153411;27;20046;-60
2021/05/27 08:14:59;;;;;;;3.95;1.65;;;;;;;;;;5134665;27;20519;-59
2021/05/27 08:17:26;;;;;;;4.50;1.77;;;;;;;;;;5153404;27;20388;-59
2021/05/27 08:19:52;;;;;;;5.80;1.90;;;;;;;;;;5149948;27;20050;-60
2021/05/27 08:22:18;;;;;;;6.35;1.65;;;;;;;;;;5153037;27;20029;-60
2021/05/27 08:24:44;;;;;;;5.88;1.90;;;;;;;;;;5145680;27;20411;-62
2021/05/27 08:27:11;;;;;;;4.55;1.70;;;;;;;;;;5140770;27;20019;-58
2021/05/27 08:29:37;;;;;;;3.55;1.48;;;;;;;;;;5130735;27;20050;-58
2021/05/27 08:32:06;;;;;;;6.05;1.90;;;;;;;;;;5153058;27;20019;-58
2021/05/27 08:34:32;;;;;;;3.47;1.40;;;;;;;;;;5152881;27;20043;-58
2021/05/27 08:36:58;;;;;;;3.80;1.50;;;;;;;;;;5153108;27;20022;-58
2021/05/27 08:39:24;;;;;;;3.60;1.50;;;;;;;;;;5152079;27;20038;-59
2021/05/27 08:41:50;;;;;;;4.95;1.67;;;;;;;;;;5152997;27;20019;-58
2021/05/27 08:44:16;;;;;;;5.93;1.48;;;;;;;;;;5147392;27;20019;-58
2021/05/27 08:46:42;;;;;;;4.63;1.60;;;;;;;;;;5153003;27;20022;-58
2021/05/27 08:49:09;;;;;;;3.65;1.40;;;;;;;;;;5152522;27;20038;-58
2021/05/27 08:51:36;;;;;;;6.25;1.40;;;;;;;;;;5150189;27;20389;-58
2021/05/27 08:54:03;;;;;;;5.22;1.35;;;;;;;;;;5146818;27;20032;-59
2021/05/27 08:56:29;;;;;;;3.20;1.08;;;;;;;;;;5155358;27;20420;-58
2021/05/27 08:58:55;;;;;;;6.93;1.23;;;;;;;;;;5155676;27;20029;-59
2021/05/27 09:01:24;;;;;;;4.55;1.23;;;;;;;;;;5138057;27;20389;-59
2021/05/27 09:03:51;;;;;;;3.72;1.23;;;;;;;;;;5147287;27;20023;-58
2021/05/27 09:06:18;;;;;;;4.40;1.08;;;;;;;;;;5151785;27;20208;-58
2021/05/27 09:08:44;;;;;;;6.30;1.30;;;;;;;;;;5156948;27;20072;-58
2021/05/27 09:11:15;;;;;;;6.90;1.65;;;;;;;;;;5157013;27;20021;-60
2021/05/27 09:13:52;;;;;;;10.45;1.25;;;;;;;;;;5147437;27;20397;-59
2021/05/27 09:16:19;;;;;;;4.20;1.45;;;;;;;;;;5146705;27;20423;-60
2021/05/27 09:18:45;;;;;;;3.78;1.10;;;;;;;;;;5138631;27;20477;-58
2021/05/27 09:21:15;;;;;;;5.65;1.20;;;;;;;;;;5138625;27;20091;-58
2021/05/27 09:23:48;;;;;;;2.95;1.25;;;;;;;;;;5136529;27;20371;-59
2021/05/27 09:26:15;;;;;;;3.47;1.33;;;;;;;;;;5143934;27;20411;-59
2021/05/27 09:28:43;;;;;;;4.18;1.38;;;;;;;;;;5135790;27;20047;-58
2021/05/27 09:31:10;;;;;;;4.95;1.20;;;;;;;;;;5153395;27;20067;-58
2021/05/27 09:33:37;;;;;;;2.70;0.98;;;;;;;;;;5156254;27;20063;-58
2021/05/27 09:36:10;;;;;;;4.20;1.50;;;;;;;;;;5156431;27;20030;-59
2021/05/27 09:38:38;;;;;;;5.72;1.35;;;;;;;;;;5137643;27;20461;-58
2021/05/27 09:41:23;;;;;;;7.38;1.58;;;;;;;;;;5156343;27;20091;-58
2021/05/27 09:43:50;;;;;;;3.47;1.23;;;;;;;;;;5156273;27;20015;-58
2021/05/27 09:46:17;;;;;;;3.58;1.38;;;;;;;;;;5156175;27;20026;-58
2021/05/27 09:48:44;;;;;;;5.03;1.38;;;;;;;;;;5156208;27;20346;-58
2021/05/27 09:51:11;;;;;;;5.30;1.13;;;;;;;;;;5156074;27;20025;-58
2021/05/27 09:53:37;;;;;;;2.55;1.15;;;;;;;;;;5156074;27;20019;-59
2021/05/27 09:56:04;;;;;;;4.97;1.30;;;;;;;;;;5155837;27;20039;-58
2021/05/27 09:58:30;;;;;;;5.15;1.35;;;;;;;;;;5156069;27;20053;-58
2021/05/27 10:00:57;;;;;;;2.42;1.20;;;;;;;;;;5155950;27;20011;-58
2021/05/27 10:03:23;;;;;;;3.25;1.20;;;;;;;;;;5155262;27;20023;-58
2021/05/27 10:05:49;;;;;;;4.00;1.00;;;;;;;;;;5155685;27;20082;-58
2021/05/27 10:08:15;;;;;;;4.60;1.15;;;;;;;;;;5156107;27;20033;-58
2021/05/27 10:10:43;;;;;;;7.03;1.10;;;;;;;;;;5155849;27;20111;-58
2021/05/27 10:13:10;;;;;;;2.97;1.00;;;;;;;;;;5155705;27;20054;-59
2021/05/27 10:15:36;;;;;;;3.10;1.30;;;;;;;;;;5155612;27;20129;-58
2021/05/27 10:18:06;;;;;;;3.28;1.42;;;;;;;;;;5155367;27;20492;-58
2021/05/27 10:20:32;;;;;;;2.80;1.20;;;;;;;;;;5133528;27;20023;-59
2021/05/27 10:22:59;;;;;;;3.30;1.00;;;;;;;;;;5149754;27;20019;-56
2021/05/27 10:25:26;;;;;;;2.25;0.85;;;;;;;;;;5155687;27;20022;-59
2021/05/27 10:27:53;;;;;;;2.90;0.90;;;;;;;;;;5154964;27;20015;-59
2021/05/27 10:30:20;;;;;;;2.00;0.88;;;;;;;;;;5143831;27;20531;-58
2021/05/27 10:32:50;;;;;;;4.22;1.02;;;;;;;;;;5144029;27;20102;-58
2021/05/27 10:35:16;;;;;;;2.80;0.80;;;;;;;;;;5145639;27;20039;-59
2021/05/27 10:37:43;;;;;;;4.47;1.10;;;;;;;;;;5155273;27;20030;-59
2021/05/27 10:40:12;;;;;;;3.35;0.98;;;;;;;;;;5145128;27;20031;-58
2021/05/27 10:42:56;;;;;;;2.33;1.00;;;;;;;;;;5143037;27;20030;-59
2021/05/27 10:45:26;;;;;;;2.78;1.10;;;;;;;;;;5143376;27;20098;-59
2021/05/27 10:48:10;;;;;;;2.70;0.73;;;;;;;;;;5140772;27;20066;-59
2021/05/27 10:50:53;;;;;;;2.30;0.82;;;;;;;;;;5134008;27;20524;-59
2021/05/27 10:53:38;;;;;;;3.00;0.98;;;;;;;;;;5133965;27;20125;-59
2021/05/27 10:56:08;;;;;;;1.70;0.90;;;;;;;;;;5133851;27;20059;-58
2021/05/27 10:58:51;;;;;;;3.40;0.98;;;;;;;;;;5133437;27;20023;-59
2021/05/27 11:01:18;;;;;;;3.63;0.98;;;;;;;;;;5133895;27;20023;-59
2021/05/27 11:03:46;;;;;;;5.82;1.15;;;;;;;;;;5144893;27;20501;-62
2021/05/27 11:06:19;;;;;;;4.10;1.20;;;;;;;;;;5143231;27;20524;-58
2021/05/27 11:08:45;;;;;;;3.13;0.77;;;;;;;;;;5141869;27;20031;-59
2021/05/27 11:11:30;;;;;;;3.65;1.20;;;;;;;;;;5133788;27;20023;-61
2021/05/27 11:14:23;;;;;;;3.70;1.10;;;;;;;;;;5132553;27;20026;-58
2021/05/27 11:22:29;;;;;;;7.97;1.38;;;;;;;;;;5133526;27;20023;-58
2021/05/27 11:25:11;;;;;;;6.75;1.52;;;;;;;;;;5133370;27;20050;-60
2021/05/27 11:27:38;;;;;;;16.17;2.53;;;;;;;;;;5141990;27;20034;-58
2021/05/27 11:30:13;;;;;;;13.00;1.73;;;;;;;;;;5147488;27;20023;-59
2021/05/27 11:32:39;;;;;;;18.05;2.60;;;;;;;;;;5154117;27;20018;-58
2021/05/27 11:35:05;;;;;;;14.77;2.15;;;;;;;;;;5152530;27;20557;-58
2021/05/27 11:37:35;;;;;;;11.07;2.38;;;;;;;;;;5153342;27;20322;-58
2021/05/27 11:40:01;;;;;;;16.63;2.65;;;;;;;;;;5153563;27;20488;-60
2021/05/27 11:42:27;;;;;;;15.98;2.22;;;;;;;;;;5152803;27;20019;-58
2021/05/27 11:45:00;;;;;;;13.23;2.42;;;;;;;;;;5153901;27;20102;-62
2021/05/27 11:47:29;;;;;;;10.40;1.70;;;;;;;;;;5153865;27;20015;-59
2021/05/27 11:50:05;;;;;;;7.95;1.88;;;;;;;;;;5153527;27;20023;-58
2021/05/27 11:52:31;;;;;;;8.13;1.58;;;;;;;;;;5153443;27;20010;-59
2021/05/27 11:54:57;;;;;;;14.32;1.67;;;;;;;;;;5153069;27;20034;-59
2021/05/27 11:57:42;;;;;;;11.07;1.90;;;;;;;;;;5154695;27;20025;-63
2021/05/27 12:00:09;;;;;;;6.15;1.48;;;;;;;;;;5154010;27;20027;-58
2021/05/27 12:02:42;;;;;;;8.05;1.50;;;;;;;;;;5153495;27;20023;-59
2021/05/27 12:05:25;;;;;;;9.50;1.58;;;;;;;;;;5153512;27;20019;-58
2021/05/27 12:07:51;;;;;;;;;;;;;;;;;;5153951;27;20054;-59
2021/05/27 12:10:17;;;;;;;5.13;1.20;;;;;;;;;;5135017;27;20328;-58
2021/05/27 12:12:43;;;;;;;4.50;1.30;;;;;;;;;;5153509;27;20480;-59
2021/05/27 12:15:09;;;;;;;7.60;1.40;;;;;;;;;;5153358;27;20034;-59
2021/05/27 12:17:41;;;;;;;4.72;1.00;;;;;;;;;;5153426;27;20022;-59
2021/05/27 12:20:08;;;;;;;4.43;1.00;;;;;;;;;;5153138;27;20122;-58
2021/05/27 12:22:44;;;;;;;3.00;0.82;;;;;;;;;;5153255;27;20023;-59
2021/05/27 12:25:11;;;;;;;5.43;1.10;;;;;;;;;;5152777;27;20022;-59
2021/05/27 12:27:38;;;;;;;2.17;0.80;;;;;;;;;;5153274;27;20041;-60
2021/05/27 12:30:04;;;;;;;2.40;0.73;;;;;;;;;;5152979;27;20082;-60
2021/05/27 12:32:30;;;;;;;3.53;1.02;;;;;;;;;;5134346;27;20022;-59
2021/05/27 12:34:56;;;;;;;3.28;0.82;;;;;;;;;;5152744;27;20075;-61
2021/05/27 12:37:36;;;;;;;3.70;0.80;;;;;;;;;;5153132;27;20047;-59
2021/05/27 12:40:09;;;;;;;4.07;0.80;;;;;;;;;;5152896;27;20445;-58
2021/05/27 12:42:36;;;;;;;2.00;0.90;;;;;;;;;;5152950;27;20023;-59
2021/05/27 12:45:21;;;;;;;2.67;0.80;;;;;;;;;;5153053;27;20022;-59
2021/05/27 12:48:02;;;;;;;4.32;0.80;;;;;;;;;;5152926;27;20019;-59
2021/05/27 12:50:28;;;;;;;2.78;0.85;;;;;;;;;;5152919;27;20490;-58
2021/05/27 12:52:54;;;;;;;2.40;0.98;;;;;;;;;;5152796;27;20015;-58
2021/05/27 12:55:26;;;;;;;3.25;0.90;;;;;;;;;;5152796;27;20103;-58
2021/05/27 12:57:53;;;;;;;5.95;0.80;;;;;;;;;;5152500;27;20019;-58
2021/05/27 13:00:19;;;;;;;4.28;0.80;;;;;;;;;;5149338;27;20031;-58
2021/05/27 13:02:58;;;;;;;2.83;0.98;;;;;;;;;;5151375;27;20019;-59
2021/05/27 13:05:24;;;;;;;2.15;0.77;;;;;;;;;;5151335;27;20561;-59
2021/05/27 13:07:54;;;;;;;1.77;0.68;;;;;;;;;;5151369;27;20524;-60
2021/05/27 13:10:27;;;;;;;1.88;0.80;;;;;;;;;;5151331;27;20101;-59
2021/05/27 13:12:53;;;;;;;1.60;0.63;;;;;;;;;;5151281;27;20023;-58
2021/05/27 13:15:19;;;;;;;3.13;0.70;;;;;;;;;;5151041;27;20042;-58
2021/05/27 13:18:00;;;;;;;4.85;1.05;;;;;;;;;;5151505;27;20650;-59
2021/05/27 13:20:26;;;;;;;6.35;0.73;;;;;;;;;;5148807;27;20035;-58
2021/05/27 13:22:52;;;;;;;3.65;1.17;;;;;;;;;;5151447;27;20029;-60
2021/05/27 13:25:18;;;;;;;4.70;1.00;;;;;;;;;;5151220;27;20015;-59
2021/05/27 13:27:49;;;;;;;4.10;0.95;;;;;;;;;;5151382;27;20050;-59
2021/05/27 13:30:19;;;;;;;2.00;0.80;;;;;;;;;;5148797;27;20129;-60
2021/05/27 13:32:46;;;;;;;2.42;0.68;;;;;;;;;;5151810;27;20071;-60
2021/05/27 13:35:26;;;;;;;3.80;0.80;;;;;;;;;;5152227;27;20038;-59
2021/05/27 13:37:55;;;;;;;1.85;0.75;;;;;;;;;;5154231;27;20465;-59
2021/05/27 13:40:23;;;;;;;5.53;1.10;;;;;;;;;;5156560;27;20033;-59
2021/05/27 13:42:51;;;;;;;6.05;1.80;;;;;;;;;;5155630;27;20142;-59
2021/05/27 13:45:19;;;;;;;4.88;1.75;;;;;;;;;;5156086;27;20079;-59
2021/05/27 13:47:45;;;;;;;5.30;1.48;;;;;;;;;;5155806;27;20094;-59
2021/05/27 13:50:12;;;;;;;4.03;1.42;;;;;;;;;;5156163;27;20023;-59
2021/05/27 13:52:40;;;;;;;5.10;1.50;;;;;;;;;;5156041;27;20030;-59
2021/05/27 13:55:07;;;;;;;3.25;1.30;;;;;;;;;;5156058;27;20027;-59
2021/05/27 13:57:35;;;;;;;3.28;0.95;;;;;;;;;;5155782;27;20021;-59
2021/05/27 14:00:02;;;;;;;6.28;1.13;;;;;;;;;;5152896;27;20073;-61
2021/05/27 14:02:29;;;;;;;5.10;1.40;;;;;;;;;;5155817;27;20022;-59
2021/05/27 14:04:55;;;;;;;5.40;1.27;;;;;;;;;;5155470;27;20492;-59
2021/05/27 14:07:22;;;;;;;7.85;1.52;;;;;;;;;;5155887;27;20041;-58
2021/05/27 14:09:48;;;;;;;7.10;1.58;;;;;;;;;;5155814;27;20015;-59
2021/05/27 14:12:14;;;;;;;3.25;1.08;;;;;;;;;;5155582;27;20054;-58
2021/05/27 14:14:40;;;;;;;5.07;0.80;;;;;;;;;;5155721;27;20465;-59
2021/05/27 14:17:06;;;;;;;3.53;0.80;;;;;;;;;;5155656;27;20389;-59
2021/05/27 14:19:32;;;;;;;8.27;0.90;;;;;;;;;;5154904;27;20400;-58
2021/05/27 14:21:58;;;;;;;1.70;0.85;;;;;;;;;;5154986;27;20484;-61
2021/05/27 14:24:24;;;;;;;2.88;0.82;;;;;;;;;;5149590;27;20046;-60
2021/05/27 14:26:52;;;;;;;3.17;0.93;;;;;;;;;;5145660;27;20038;-60
2021/05/27 14:29:18;;;;;;;5.82;0.98;;;;;;;;;;5142753;27;20015;-59
2021/05/27 14:31:44;;;;;;;4.72;1.15;;;;;;;;;;5144859;27;20023;-59
2021/05/27 14:34:10;;;;;;;2.92;0.80;;;;;;;;;;5142979;27;20039;-61
2021/05/27 14:36:36;;;;;;;4.68;0.82;;;;;;;;;;5145267;27;20027;-59
2021/05/27 14:39:05;;;;;;;6.32;1.17;;;;;;;;;;5144718;27;20015;-58
2021/05/27 14:41:31;;;;;;;4.97;0.73;;;;;;;;;;5143222;27;20022;-58
2021/05/27 14:43:57;;;;;;;4.68;0.80;;;;;;;;;;5144831;27;20023;-59
2021/05/27 14:46:23;;;;;;;7.55;1.40;;;;;;;;;;5144554;27;20531;-59
2021/05/27 14:48:50;;;;;;;5.32;0.88;;;;;;;;;;5143004;27;20035;-60
2021/05/27 14:51:16;;;;;;;1.77;0.77;;;;;;;;;;5145044;27;20030;-59
2021/05/27 14:53:42;;;;;;;2.38;1.05;;;;;;;;;;5144439;27;20041;-59
2021/05/27 14:56:08;;;;;;;2.92;0.95;;;;;;;;;;5142943;27;20058;-60
2021/05/27 14:58:34;;;;;;;7.68;1.00;;;;;;;;;;5144178;27;20023;-59
2021/05/27 15:01:00;;;;;;;4.05;0.80;;;;;;;;;;5143954;27;20022;-60
2021/05/27 15:03:26;;;;;;;5.47;0.98;;;;;;;;;;5144369;27;20098;-61